createdAt,value
2018-06-15T00:00:20.027Z,99.90
2018-06-15T00:02:54.829Z,99.90
2018-06-15T00:05:24.241Z,99.90
2018-06-15T00:07:53.683Z,99.90
2018-06-15T00:10:23.756Z,99.90
2018-06-15T00:12:54.001Z,99.90
2018-06-15T00:15:24.163Z,99.90
2018-06-15T00:17:54.658Z,99.90
2018-06-15T00:20:25.026Z,99.90
2018-06-15T00:22:55.266Z,99.90
2018-06-15T00:25:25.427Z,99.90
2018-06-15T00:27:55.684Z,99.90
2018-06-15T00:30:25.947Z,99.90
2018-06-15T00:32:56.497Z,99.90
2018-06-15T00:35:26.662Z,99.90
2018-06-15T00:37:56.942Z,99.90
2018-06-15T00:40:27.194Z,99.90
2018-06-15T00:42:57.441Z,99.90
2018-06-15T00:45:27.677Z,99.90
2018-06-15T00:47:57.818Z,99.90
2018-06-15T00:50:28.061Z,99.90
2018-06-15T00:52:58.200Z,99.90
2018-06-15T00:55:28.454Z,99.90
2018-06-15T00:57:58.593Z,99.90
2018-06-15T01:00:28.843Z,99.90
2018-06-15T01:02:59.005Z,99.90
2018-06-15T01:05:29.264Z,99.90
2018-06-15T01:07:59.398Z,99.90
2018-06-15T01:10:29.698Z,99.90
2018-06-15T01:12:59.175Z,99.90
2018-06-15T01:15:29.323Z,99.90
2018-06-15T01:17:58.799Z,99.90
2018-06-15T01:20:28.266Z,99.90
2018-06-15T01:22:57.614Z,99.90
2018-06-15T01:25:27.074Z,99.90
2018-06-15T01:27:56.431Z,99.90
2018-06-15T01:30:25.993Z,99.90
2018-06-15T01:32:55.374Z,99.90
2018-06-15T01:35:25.038Z,99.90
2018-06-15T01:37:54.389Z,99.90
2018-06-15T01:40:23.791Z,99.90
2018-06-15T01:42:53.237Z,99.90
2018-06-15T01:45:22.705Z,99.90
2018-06-15T01:47:52.235Z,99.90
2018-06-15T01:50:21.593Z,99.90
2018-06-15T01:52:51.351Z,99.90
2018-06-15T01:55:21.395Z,99.90
2018-06-15T01:57:50.973Z,99.90
2018-06-15T02:00:20.568Z,99.90
2018-06-15T02:02:50.022Z,99.90
2018-06-15T02:05:19.382Z,99.90
2018-06-15T02:07:48.919Z,99.90
2018-06-15T02:10:18.214Z,99.90
2018-06-15T02:12:47.681Z,99.90
2018-06-15T02:15:17.050Z,99.90
2018-06-15T02:17:46.527Z,99.90
2018-06-15T02:20:15.883Z,99.90
2018-06-15T02:22:45.353Z,99.90
2018-06-15T02:25:14.714Z,99.90
2018-06-15T02:27:44.217Z,99.90
2018-06-15T02:30:13.690Z,99.90
2018-06-15T02:32:43.051Z,99.90
2018-06-15T02:35:12.516Z,99.90
2018-06-15T02:37:41.870Z,99.90
2018-06-15T02:40:11.327Z,99.90
2018-06-15T02:42:40.690Z,99.90
2018-06-15T02:45:10.270Z,99.90
2018-06-15T02:47:39.834Z,99.90
2018-06-15T02:50:09.303Z,99.90
2018-06-15T02:52:38.652Z,99.90
2018-06-15T02:55:08.114Z,99.90
2018-06-15T02:57:37.485Z,99.90
2018-06-15T03:00:06.979Z,99.90
2018-06-15T03:02:36.346Z,99.90
2018-06-15T03:05:05.910Z,99.90
2018-06-15T03:07:35.303Z,99.90
2018-06-15T03:10:04.789Z,99.90
2018-06-15T03:12:34.236Z,99.90
2018-06-15T03:15:03.742Z,99.90
2018-06-15T03:17:33.105Z,99.90
2018-06-15T03:20:02.473Z,99.90
2018-06-15T03:22:31.934Z,99.90
2018-06-15T03:25:01.320Z,99.90
2018-06-15T03:27:30.797Z,99.90
2018-06-15T03:30:03.084Z,99.90
2018-06-15T03:32:32.623Z,99.90
2018-06-15T03:35:01.994Z,99.90
2018-06-15T03:37:31.495Z,99.90
2018-06-15T03:40:00.856Z,99.90
2018-06-15T03:42:30.313Z,99.90
2018-06-15T03:44:59.678Z,99.90
2018-06-15T03:47:29.141Z,99.90
2018-06-15T03:49:58.518Z,99.90
2018-06-15T03:52:27.993Z,99.90
2018-06-15T03:54:57.354Z,99.90
2018-06-15T03:57:26.865Z,99.90
2018-06-15T03:59:56.251Z,99.90
2018-06-15T04:02:25.711Z,99.90
2018-06-15T04:04:55.059Z,99.90
2018-06-15T04:07:24.598Z,99.90
2018-06-15T04:09:53.966Z,99.90
2018-06-15T04:12:23.446Z,99.90
2018-06-15T04:14:52.838Z,99.90
2018-06-15T04:17:22.190Z,99.90
2018-06-15T04:19:51.741Z,99.90
2018-06-15T04:22:21.066Z,99.90
2018-06-15T04:24:50.526Z,99.90
2018-06-15T04:27:19.906Z,99.90
2018-06-15T04:29:49.370Z,99.90
2018-06-15T04:32:18.905Z,99.90
2018-06-15T04:34:48.414Z,99.90
2018-06-15T04:37:17.808Z,99.90
2018-06-15T04:39:47.245Z,99.90
2018-06-15T04:42:16.647Z,99.90
2018-06-15T04:44:46.128Z,99.90
2018-06-15T04:47:15.506Z,99.90
2018-06-15T04:49:45.035Z,99.90
2018-06-15T04:52:14.390Z,99.90
2018-06-15T04:54:43.882Z,99.90
2018-06-15T04:57:13.934Z,99.90
2018-06-15T04:59:44.190Z,99.90
2018-06-15T05:02:14.451Z,99.90
2018-06-15T05:04:44.606Z,99.90
2018-06-15T05:07:14.870Z,99.90
2018-06-15T05:09:45.028Z,99.90
2018-06-15T05:12:15.408Z,99.90
2018-06-15T05:14:45.574Z,99.90
2018-06-15T05:17:15.841Z,99.90
2018-06-15T05:19:46.001Z,99.90
2018-06-15T05:22:16.270Z,99.90
2018-06-15T05:24:46.432Z,99.90
2018-06-15T05:27:16.685Z,99.90
2018-06-15T05:29:46.882Z,99.90
2018-06-15T05:32:17.231Z,99.90
2018-06-15T05:34:47.367Z,99.90
2018-06-15T05:37:17.639Z,99.90
2018-06-15T05:39:47.918Z,99.90
2018-06-15T05:42:18.200Z,99.60
2018-06-15T05:44:48.444Z,98.80
2018-06-15T05:47:18.587Z,97.80
2018-06-15T05:49:48.904Z,96.50
2018-06-15T05:52:19.048Z,94.30
2018-06-15T05:54:49.406Z,92.10
2018-06-15T05:57:19.667Z,91.60
2018-06-15T05:59:49.930Z,91.80
2018-06-15T06:02:20.099Z,91.50
2018-06-15T06:04:50.407Z,90.90
2018-06-15T06:07:20.536Z,90.10
2018-06-15T06:09:50.794Z,90.70
2018-06-15T06:12:20.927Z,90.00
2018-06-15T06:14:51.178Z,87.20
2018-06-15T06:17:21.311Z,86.80
2018-06-15T06:19:51.639Z,86.40
2018-06-15T06:22:21.730Z,88.50
2018-06-15T06:24:52.143Z,86.70
2018-06-15T06:27:22.322Z,87.80
2018-06-15T06:29:52.567Z,87.00
2018-06-15T06:32:22.913Z,89.40
2018-06-15T06:34:53.062Z,89.00
2018-06-15T06:37:23.339Z,88.90
2018-06-15T06:39:53.486Z,91.20
2018-06-15T06:42:23.756Z,92.40
2018-06-15T06:44:53.903Z,92.70
2018-06-15T06:47:24.198Z,90.60
2018-06-15T06:49:54.356Z,89.80
2018-06-15T06:52:24.606Z,90.50
2018-06-15T06:54:54.756Z,90.10
2018-06-15T06:57:25.052Z,91.20
2018-06-15T06:59:55.207Z,89.80
2018-06-15T07:02:25.495Z,88.60
2018-06-15T07:04:55.639Z,84.90
2018-06-15T07:07:25.935Z,84.70
2018-06-15T07:09:56.102Z,83.70
2018-06-15T07:12:26.382Z,87.40
2018-06-15T07:14:57.846Z,88.90
2018-06-15T07:17:28.127Z,88.60
2018-06-15T07:19:58.266Z,87.70
2018-06-15T07:22:28.530Z,86.20
2018-06-15T07:24:58.678Z,83.80
2018-06-15T07:27:28.999Z,85.70
2018-06-15T07:29:59.162Z,85.60
2018-06-15T07:32:29.563Z,85.90
2018-06-15T07:34:59.807Z,84.20
2018-06-15T07:37:30.051Z,83.10
2018-06-15T07:40:00.314Z,81.50
2018-06-15T07:42:30.610Z,79.30
2018-06-15T07:45:00.863Z,79.70
2018-06-15T07:47:31.015Z,75.30
2018-06-15T07:50:01.446Z,76.40
2018-06-15T07:52:31.648Z,78.70
2018-06-15T07:55:01.835Z,74.90
2018-06-15T07:57:32.048Z,75.50
2018-06-15T08:00:02.307Z,74.90
2018-06-15T08:02:33.474Z,75.40
2018-06-15T08:05:03.818Z,77.40
2018-06-15T08:07:33.963Z,79.70
2018-06-15T08:10:04.267Z,83.30
2018-06-15T08:12:34.407Z,83.80
2018-06-15T08:15:04.673Z,86.10
2018-06-15T08:17:34.943Z,88.40
2018-06-15T08:20:05.307Z,89.20
2018-06-15T08:22:35.550Z,89.10
2018-06-15T08:25:05.699Z,89.80
2018-06-15T08:27:35.986Z,88.40
2018-06-15T08:30:06.162Z,90.20
2018-06-15T08:32:36.566Z,91.90
2018-06-15T08:35:06.766Z,90.60
2018-06-15T08:37:37.007Z,90.40
2018-06-15T08:40:07.254Z,90.70
2018-06-15T08:42:37.510Z,91.70
2018-06-15T08:45:07.704Z,91.70
2018-06-15T08:47:37.954Z,91.10
2018-06-15T08:50:08.103Z,90.70
2018-06-15T08:52:38.365Z,91.70
2018-06-15T08:55:08.523Z,91.70
2018-06-15T08:57:38.814Z,92.00
2018-06-15T09:00:08.969Z,90.50
2018-06-15T09:02:39.270Z,86.90
2018-06-15T09:05:09.478Z,87.70
2018-06-15T09:07:39.762Z,86.30
2018-06-15T09:10:10.047Z,85.00
2018-06-15T09:12:40.263Z,86.70
2018-06-15T09:15:10.509Z,86.00
2018-06-15T09:17:40.647Z,87.50
2018-06-15T09:20:10.970Z,89.80
2018-06-15T09:22:41.127Z,84.30
2018-06-15T09:25:11.401Z,84.10
2018-06-15T09:27:42.725Z,86.80
2018-06-15T09:30:13.024Z,87.40
2018-06-15T09:32:43.351Z,89.30
2018-06-15T09:35:13.571Z,88.00
2018-06-15T09:37:43.718Z,88.20
2018-06-15T09:40:13.982Z,89.20
2018-06-15T09:42:44.134Z,89.50
2018-06-15T09:45:14.385Z,90.10
2018-06-15T09:47:44.527Z,90.10
2018-06-15T09:50:14.814Z,90.80
2018-06-15T09:52:44.273Z,90.50
2018-06-15T09:55:13.748Z,90.70
2018-06-15T09:57:43.106Z,90.80
2018-06-15T10:00:16.785Z,91.70
2018-06-15T10:02:46.118Z,91.30
2018-06-15T10:05:15.622Z,90.20
2018-06-15T10:07:44.991Z,88.80
2018-06-15T10:10:14.489Z,88.40
2018-06-15T10:12:43.886Z,87.40
2018-06-15T10:15:13.354Z,87.70
2018-06-15T10:17:42.714Z,88.00
2018-06-15T10:20:12.080Z,87.80
2018-06-15T10:22:41.542Z,89.00
2018-06-15T10:25:10.947Z,87.90
2018-06-15T10:27:40.420Z,87.90
2018-06-15T10:30:09.797Z,87.90
2018-06-15T10:32:39.382Z,86.50
2018-06-15T10:35:08.754Z,87.00
2018-06-15T10:37:38.226Z,84.00
2018-06-15T10:40:07.602Z,82.40
2018-06-15T10:42:37.077Z,82.50
2018-06-15T10:45:06.482Z,82.90
2018-06-15T10:47:35.950Z,83.20
2018-06-15T10:50:05.332Z,78.40
2018-06-15T10:52:34.818Z,80.20
2018-06-15T10:55:04.178Z,82.40
2018-06-15T10:57:33.662Z,84.70
2018-06-15T11:00:03.043Z,85.70
2018-06-15T11:02:32.596Z,85.20
2018-06-15T11:05:02.031Z,85.40
2018-06-15T11:07:31.501Z,84.10
2018-06-15T11:10:00.870Z,85.10
2018-06-15T11:12:30.402Z,81.20
2018-06-15T11:14:59.766Z,81.00
2018-06-15T11:17:29.146Z,83.40
2018-06-15T11:19:58.790Z,83.20
2018-06-15T11:22:28.145Z,81.70
2018-06-15T11:24:57.625Z,77.40
2018-06-15T11:27:27.021Z,78.20
2018-06-15T11:29:56.500Z,75.30
2018-06-15T11:32:26.038Z,75.40
2018-06-15T11:34:55.511Z,75.70
2018-06-15T11:37:24.931Z,73.60
2018-06-15T11:39:54.445Z,74.40
2018-06-15T11:42:23.827Z,74.30
2018-06-15T11:44:53.539Z,74.40
2018-06-15T11:47:22.910Z,76.70
2018-06-15T11:49:52.402Z,77.40
2018-06-15T11:52:21.774Z,77.60
2018-06-15T11:54:51.342Z,78.30
2018-06-15T11:57:20.747Z,73.70
2018-06-15T11:59:50.243Z,75.40
2018-06-15T12:02:19.618Z,75.90
2018-06-15T12:04:49.151Z,76.30
2018-06-15T12:07:18.540Z,74.00
2018-06-15T12:09:47.913Z,74.90
2018-06-15T12:12:17.401Z,74.70
2018-06-15T12:14:46.777Z,74.90
2018-06-15T12:17:16.271Z,74.90
2018-06-15T12:19:45.615Z,76.50
2018-06-15T12:22:15.067Z,77.60
2018-06-15T12:24:44.442Z,77.40
2018-06-15T12:27:13.904Z,76.00
2018-06-15T12:29:43.269Z,76.80
2018-06-15T12:32:12.933Z,75.90
2018-06-15T12:34:42.314Z,75.20
2018-06-15T12:37:11.819Z,77.00
2018-06-15T12:39:41.177Z,75.60
2018-06-15T12:42:10.814Z,75.90
2018-06-15T12:44:40.178Z,75.80
2018-06-15T12:47:09.531Z,77.30
2018-06-15T12:49:39.041Z,76.90
2018-06-15T12:52:08.447Z,78.90
2018-06-15T12:54:38.215Z,77.00
2018-06-15T12:57:07.622Z,75.30
2018-06-15T12:59:37.066Z,76.60
2018-06-15T13:02:06.488Z,74.20
2018-06-15T13:04:35.952Z,74.60
2018-06-15T13:07:05.302Z,74.30
2018-06-15T13:09:34.806Z,73.20
2018-06-15T13:12:04.182Z,75.40
2018-06-15T13:14:33.678Z,74.50
2018-06-15T13:17:03.057Z,73.70
2018-06-15T13:19:32.581Z,75.50
2018-06-15T13:22:01.958Z,73.00
2018-06-15T13:24:33.378Z,74.30
2018-06-15T13:27:02.738Z,73.60
2018-06-15T13:29:32.362Z,73.70
2018-06-15T13:32:01.935Z,73.70
2018-06-15T13:34:31.487Z,73.20
2018-06-15T13:37:00.862Z,73.10
2018-06-15T13:39:30.302Z,72.60
2018-06-15T13:41:59.717Z,73.90
2018-06-15T13:44:29.230Z,75.50
2018-06-15T13:46:58.705Z,76.70
2018-06-15T13:49:28.079Z,75.00
2018-06-15T13:51:57.546Z,74.60
2018-06-15T13:54:26.930Z,74.20
2018-06-15T13:56:56.397Z,75.00
2018-06-15T13:59:25.774Z,74.80
2018-06-15T14:01:55.289Z,73.70
2018-06-15T14:04:24.650Z,74.30
2018-06-15T14:06:54.145Z,70.50
2018-06-15T14:09:23.505Z,70.50
2018-06-15T14:11:53.014Z,71.50
2018-06-15T14:14:22.417Z,70.70
2018-06-15T14:16:51.915Z,70.50
2018-06-15T14:19:21.275Z,69.90
2018-06-15T14:21:50.907Z,71.40
2018-06-15T14:24:20.314Z,71.40
2018-06-15T14:26:49.847Z,70.60
2018-06-15T14:29:19.248Z,70.30
2018-06-15T14:31:48.892Z,71.40
2018-06-15T14:34:18.245Z,69.80
2018-06-15T14:36:47.624Z,69.60
2018-06-15T14:39:17.136Z,71.10
2018-06-15T14:41:46.505Z,70.90
2018-06-15T14:44:16.164Z,70.00
2018-06-15T14:46:45.573Z,69.00
2018-06-15T14:49:15.141Z,68.80
2018-06-15T14:51:44.597Z,68.40
2018-06-15T14:54:14.211Z,67.60
2018-06-15T14:56:43.771Z,67.20
2018-06-15T14:59:13.325Z,67.00
2018-06-15T15:01:42.699Z,64.20
2018-06-15T15:04:12.183Z,65.90
2018-06-15T15:06:41.590Z,66.50
2018-06-15T15:09:11.112Z,64.90
2018-06-15T15:11:40.505Z,63.80
2018-06-15T15:14:10.079Z,67.10
2018-06-15T15:16:39.466Z,65.90
2018-06-15T15:19:08.996Z,66.60
2018-06-15T15:21:38.338Z,66.40
2018-06-15T15:24:07.985Z,67.40
2018-06-15T15:26:37.421Z,69.20
2018-06-15T15:29:06.774Z,70.20
2018-06-15T15:31:36.360Z,70.60
2018-06-15T15:34:05.733Z,71.40
2018-06-15T15:36:35.206Z,71.90
2018-06-15T15:39:07.250Z,72.20
2018-06-15T15:41:36.812Z,69.90
2018-06-15T15:44:06.213Z,70.70
2018-06-15T15:46:35.871Z,70.70
2018-06-15T15:49:05.280Z,71.30
2018-06-15T15:51:34.738Z,72.00
2018-06-15T15:54:04.146Z,71.40
2018-06-15T15:56:33.721Z,72.00
2018-06-15T15:59:03.125Z,69.70
2018-06-15T16:01:32.630Z,71.70
2018-06-15T16:04:02.034Z,72.30
2018-06-15T16:06:31.539Z,72.10
2018-06-15T16:09:00.920Z,73.00
2018-06-15T16:11:30.310Z,73.20
2018-06-15T16:13:59.811Z,73.20
2018-06-15T16:16:29.165Z,72.90
2018-06-15T16:18:58.633Z,73.90
2018-06-15T16:21:28.153Z,73.30
2018-06-15T16:23:57.694Z,74.30
2018-06-15T16:26:27.061Z,73.40
2018-06-15T16:28:56.538Z,73.50
2018-06-15T16:31:26.152Z,73.80
2018-06-15T16:33:55.862Z,75.00
2018-06-15T16:36:25.428Z,74.60
2018-06-15T16:38:54.897Z,75.50
2018-06-15T16:41:24.289Z,74.00
2018-06-15T16:43:53.765Z,73.60
2018-06-15T16:46:23.144Z,73.30
2018-06-15T16:48:52.618Z,74.40
2018-06-15T16:51:22.053Z,74.20
2018-06-15T16:53:51.534Z,74.10
2018-06-15T16:56:20.918Z,74.60
2018-06-15T16:58:50.553Z,74.50
2018-06-15T17:01:19.956Z,74.20
2018-06-15T17:03:49.422Z,76.00
2018-06-15T17:06:19.590Z,75.70
2018-06-15T17:08:49.122Z,76.10
2018-06-15T17:11:19.329Z,76.10
2018-06-15T17:13:49.494Z,77.00
2018-06-15T17:16:19.846Z,77.60
2018-06-15T17:18:50.011Z,77.20
2018-06-15T17:21:20.305Z,76.90
2018-06-15T17:23:50.463Z,76.90
2018-06-15T17:26:20.749Z,77.00
2018-06-15T17:28:50.939Z,77.30
2018-06-15T17:31:21.284Z,79.20
2018-06-15T17:33:51.516Z,79.00
2018-06-15T17:36:21.802Z,77.50
2018-06-15T17:38:51.983Z,77.60
2018-06-15T17:41:22.247Z,78.20
2018-06-15T17:43:51.715Z,78.10
2018-06-15T17:46:21.204Z,76.30
2018-06-15T17:48:50.570Z,77.10
2018-06-15T17:51:20.060Z,77.40
2018-06-15T17:53:49.447Z,78.30
2018-06-15T17:56:18.832Z,78.70
2018-06-15T17:58:48.311Z,79.40
2018-06-15T18:01:17.690Z,78.80
2018-06-15T18:03:47.246Z,77.60
2018-06-15T18:06:16.947Z,77.10
2018-06-15T18:08:46.454Z,77.60
2018-06-15T18:11:15.866Z,77.30
2018-06-15T18:13:45.315Z,77.10
2018-06-15T18:16:14.800Z,77.20
2018-06-15T18:18:44.283Z,78.20
2018-06-15T18:21:13.673Z,81.30
2018-06-15T18:23:43.156Z,79.70
2018-06-15T18:26:12.514Z,78.00
2018-06-15T18:28:41.989Z,77.90
2018-06-15T18:31:11.379Z,78.10
2018-06-15T18:33:40.946Z,80.80
2018-06-15T18:36:10.307Z,79.20
2018-06-15T18:38:39.782Z,78.30
2018-06-15T18:41:09.166Z,78.40
2018-06-15T18:43:38.665Z,80.60
2018-06-15T18:46:08.040Z,82.50
2018-06-15T18:48:37.511Z,82.80
2018-06-15T18:51:06.902Z,82.90
2018-06-15T18:53:36.380Z,83.10
2018-06-15T18:56:06.432Z,83.60
2018-06-15T18:58:36.697Z,83.80
2018-06-15T19:01:06.961Z,84.30
2018-06-15T19:03:40.111Z,84.80
2018-06-15T19:06:10.362Z,84.20
2018-06-15T19:08:40.539Z,84.50
2018-06-15T19:11:10.815Z,85.20
2018-06-15T19:13:41.374Z,85.30
2018-06-15T19:16:11.658Z,85.90
2018-06-15T19:18:41.811Z,85.90
2018-06-15T19:21:12.063Z,86.30
2018-06-15T19:23:42.245Z,87.60
2018-06-15T19:26:13.081Z,88.70
2018-06-15T19:28:43.672Z,90.70
2018-06-15T19:31:13.964Z,91.60
2018-06-15T19:33:44.318Z,92.30
2018-06-15T19:36:15.232Z,92.80
2018-06-15T19:38:45.390Z,93.50
2018-06-15T19:41:15.703Z,94.10
2018-06-15T19:43:45.871Z,94.50
2018-06-15T19:46:16.131Z,95.00
2018-06-15T19:48:46.283Z,95.30
2018-06-15T19:51:16.580Z,95.60
2018-06-15T19:53:46.766Z,96.00
2018-06-15T19:56:17.052Z,96.20
2018-06-15T19:58:47.259Z,96.40
2018-06-15T20:01:17.560Z,96.70
2018-06-15T20:03:47.841Z,97.00
2018-06-15T20:06:18.003Z,97.40
2018-06-15T20:08:48.270Z,97.80
2018-06-15T20:11:19.488Z,98.20
2018-06-15T20:13:49.772Z,98.70
2018-06-15T20:16:19.923Z,99.00
2018-06-15T20:18:50.305Z,99.20
2018-06-15T20:21:20.527Z,99.50
2018-06-15T20:23:50.796Z,99.80
2018-06-15T20:26:21.020Z,99.90
2018-06-15T20:28:51.298Z,99.90
2018-06-15T20:31:21.466Z,99.90
2018-06-15T20:33:51.826Z,99.90
2018-06-15T20:36:22.112Z,99.90
2018-06-15T20:38:52.370Z,99.90
2018-06-15T20:41:22.575Z,99.90
2018-06-15T20:43:52.992Z,99.90
2018-06-15T20:46:23.146Z,99.90
2018-06-15T20:48:53.413Z,99.90
2018-06-15T20:51:23.570Z,99.90
2018-06-15T20:53:53.849Z,99.90
2018-06-15T20:56:24.003Z,99.90
2018-06-15T20:58:54.283Z,99.90
2018-06-15T21:01:24.473Z,99.90
2018-06-15T21:03:54.801Z,99.90
2018-06-15T21:06:25.108Z,99.90
2018-06-15T21:08:55.313Z,99.90
2018-06-15T21:11:25.574Z,99.90
2018-06-15T21:13:55.750Z,99.90
2018-06-15T21:16:26.007Z,99.90
2018-06-15T21:18:56.243Z,99.90
2018-06-15T21:21:26.519Z,99.90
2018-06-15T21:23:56.722Z,99.90
2018-06-15T21:26:27.005Z,99.90
2018-06-15T21:28:57.331Z,99.90
2018-06-15T21:31:27.591Z,99.90
2018-06-15T21:33:57.879Z,99.90
2018-06-15T21:36:28.204Z,99.90
2018-06-15T21:38:58.387Z,99.90
2018-06-15T21:41:28.679Z,99.90
2018-06-15T21:43:58.832Z,99.90
2018-06-15T21:46:29.110Z,99.90
2018-06-15T21:48:59.284Z,99.90
2018-06-15T21:51:29.583Z,99.90
2018-06-15T21:53:59.842Z,99.90
2018-06-15T21:56:30.020Z,99.90
2018-06-15T21:59:00.282Z,99.90
2018-06-15T22:01:30.503Z,99.90
2018-06-15T22:04:00.762Z,99.90
2018-06-15T22:06:30.231Z,99.90
2018-06-15T22:08:59.738Z,99.90
2018-06-15T22:11:29.133Z,99.90
2018-06-15T22:13:58.602Z,99.90
2018-06-15T22:16:32.133Z,99.90
2018-06-15T22:19:01.767Z,99.90
2018-06-15T22:21:31.147Z,99.90
2018-06-15T22:24:00.661Z,99.90
2018-06-15T22:26:30.117Z,99.90
2018-06-15T22:28:59.810Z,99.90
2018-06-15T22:31:29.186Z,99.90
2018-06-15T22:33:58.754Z,99.90
2018-06-15T22:36:28.112Z,99.90
2018-06-15T22:38:57.596Z,99.90
2018-06-15T22:41:26.975Z,99.90
2018-06-15T22:43:56.467Z,99.90
2018-06-15T22:46:25.821Z,99.90
2018-06-15T22:48:55.310Z,99.90
2018-06-15T22:51:24.936Z,99.90
2018-06-15T22:53:54.300Z,99.90
2018-06-15T22:56:23.785Z,99.90
2018-06-15T22:58:53.852Z,99.90
2018-06-15T23:01:23.508Z,99.90
2018-06-15T23:03:52.870Z,99.90
2018-06-15T23:06:22.338Z,99.90
2018-06-15T23:08:51.704Z,99.90
2018-06-15T23:11:21.246Z,99.90
2018-06-15T23:13:50.596Z,99.90
2018-06-15T23:16:20.098Z,99.90
2018-06-15T23:18:49.482Z,99.90
2018-06-15T23:21:19.039Z,99.90
2018-06-15T23:23:48.433Z,99.90
2018-06-15T23:26:17.962Z,99.90
2018-06-15T23:28:47.329Z,99.90
2018-06-15T23:31:17.764Z,99.90
2018-06-15T23:33:53.458Z,99.90
2018-06-15T23:36:24.245Z,99.90
2018-06-15T23:38:53.730Z,99.90
2018-06-15T23:41:23.250Z,99.90
2018-06-15T23:43:52.620Z,99.90
2018-06-15T23:46:22.010Z,99.90
2018-06-15T23:48:51.531Z,99.90
2018-06-15T23:51:20.964Z,99.90
2018-06-15T23:53:50.436Z,99.90
2018-06-15T23:56:19.790Z,99.90
2018-06-15T23:58:49.258Z,99.90
